AirNav   Everest Fuels
 
 966 users online  

10G Holmes County Airport
Millersburg, Ohio, USA

GOING TO MILLERSBURG?


FAA INFORMATION EFFECTIVE 23 MARCH 2023

Location

FAA Identifier: 10G
Lat/Long: 40-32-12.1245N 081-57-21.3882W
40-32.202075N 081-57.356470W
40.5367013,-81.9559412
(estimated)
Elevation: 1226.5 ft. / 373.8 m (surveyed)
Variation: 08W (2015)
From city: 2 miles SW of MILLERSBURG, OH
Time zone: UTC -4 (UTC -5 during Standard Time)
Zip code: 44654

Airport Operations

Airport use: Open to the public
Activation date: 03/1962
Control tower: no
ARTCC: INDIANAPOLIS CENTER
FSS: CLEVELAND FLIGHT SERVICE STATION
NOTAMs facility: CLE (NOTAM-D service available)
Attendance: MON-FRI 0800-1700, ALL SAT 0900-1700, ALL SUN 1200-1700
UNATNDD MAJ HOLS.
Wind indicator: lighted
Segmented circle: no
Lights: ACTVT MIRL RY 09/27, PAPI RY 27 AND REIL RYS 09 & 27 - 123.4.
Beacon: white-green (lighted land airport)
Operates sunset to sunrise.

Airport Communications

CTAF/UNICOM: 123.0
WX AWOS-3: 128.325 (330-674-6279)
WX AWOS-3 at I40 (14 nm S): 118.875 (740-295-7370)
  • APCH/DEP SVC PRVDD BY INDIANAPOLIS ARTCC ON FREQS 124.45/370.9 (ZANESVILLE RCAG).

Nearby radio navigation aids

VOR radial/distance  VOR name  Freq  Var
BSVr247/26.8BRIGGS VOR/DME112.4004W
MFDr128/35.1MANSFIELD VORTAC108.8003W
ZZVr001/35.9ZANESVILLE VOR/DME114.9506W
APEr057/37.0APPLETON VORTAC116.7006W

Airport Services

Fuel available: 100LL JET-A+
Parking: hangars and tiedowns
Airframe service: MAJOR
Powerplant service: MAJOR
Bottled oxygen: HIGH
Bulk oxygen: NONE

Runway Information

Runway 9/27

Dimensions: 4400 x 75 ft. / 1341 x 23 m
Surface: asphalt, in fair condition
Weight bearing capacity: 
Single wheel: 14.0
Double wheel: 25.0
Runway edge lights: medium intensity
RUNWAY 9  RUNWAY 27
Latitude: 40-32.182148N40-32.222002N
Longitude: 081-57.830652W081-56.882287W
Elevation: 1226.5 ft.1183.2 ft.
Traffic pattern: leftleft
Runway heading: 095 magnetic, 087 true275 magnetic, 267 true
Markings: nonprecision, in fair conditionnonprecision, in fair condition
Visual slope indicator: 2-light PAPI on left (3.00 degrees glide path)
Runway end identifier lights: yesyes
Touchdown point: yes, no lightsyes, no lights
Obstructions: 74 ft. trees, 1537 ft. from runway, 224 ft. right of centerline, 18:1 slope to clearnone

Airport Ownership and Management from official FAA records

Ownership: Publicly-owned
Owner: HOLMES CO ARPT AUTH
10 S CLAY ST
MILLERSBURG, OH 44654-1329
Phone 330-674-8625
Manager: LARRY CLARK
4501 TOWNSHIP ROAD 307
MILLERSBURG, OH 44654-9656
Phone 330-674-0674
CELL 330-231-3715.

Airport Operational Statistics

Aircraft based on the field: 10
Single engine airplanes: 8
Multi engine airplanes: 1
Jet airplanes: 1
    
Aircraft operations: avg 59/day *
70% local general aviation
23% transient general aviation
5% military
2% air taxi
* for 12-month period ending 07 September 2022

Additional Remarks

DEER ON & INVOF ARPT.
FOR CD CTC INDIANAPOLIS ARTCC AT 317-247-2411.

Instrument Procedures

NOTE: All procedures below are presented as PDF files. If you need a reader for these files, you should download the free Adobe Reader.

NOT FOR NAVIGATION. Please procure official charts for flight.
FAA instrument procedures published for use from 23 March 2023 at 0901Z to 20 April 2023 at 0900Z.

 
IAPs - Instrument Approach Procedures
RNAV (GPS) RWY 09   download (196KB)
RNAV (GPS) RWY 27   download (204KB)
NOTE: Special Alternate Minimums apply   download (168KB)
NOTE: Special Take-Off Minimums/Departure Procedures apply   download (234KB)

Other nearby airports with instrument procedures:

I40 - Richard Downing Airport (14 nm S)
KBJJ - Wayne County Airport (21 nm N)
KPHD - Harry Clever Field Airport (25 nm E)
3G4 - Ashland County Airport (26 nm NW)
4I3 - Knox County Airport (29 nm SW)
 
Loc | Ops | Rwys | IFR | FBO | Links
Com | Nav | Svcs | Stats | Notes
Area around 10G (Holmes County Airport)
 
Road maps at: MapQuest Bing Google
 
Aerial photo
WARNING: Photo may not be current or correct
Aerial photo of 10G (Holmes County Airport)
Do you have a better or more recent aerial photo of Holmes County Airport that you would like to share? If so, please send us your photo.

 
Sectional chart

 
Airport distance calculator
Flying to Holmes County Airport? Find the distance to fly.

From to 10G

Sunrise and sunset
Times for 25-Mar-2023
 Local
(UTC-4)
 Zulu
(UTC)
Morning civil twilight06:5710:57
Sunrise07:2411:24
Sunset19:4423:44
Evening civil twilight20:1100:11

Current date and time
Zulu (UTC)  26-Mar-2023 01:10:41
Local (UTC-4)  25-Mar-2023 21:10:41
 
METAR
KBJJ 
20nm N 
260056Z AUTO 28022G35KT 10SM OVC029 06/00 A2976 RMK AO2 PK WND 26040/0004 SLP082 T00560000
KPHD 
25nm E 
260053Z AUTO 26017G26KT 10SM OVC043 08/M01 A2979 RMK AO2 PK WND 27035/0000 SLP088 T00831011
K4I3 
29nm SW 
260055Z AUTO 24017G27KT 10SM BKN037 OVC043 06/00 A2981 RMK AO2
KMFD 
31nm NW 
260052Z 25018G32KT 10SM BKN029 OVC036 04/M01 A2976 RMK AO2 PK WND 26033/0008 SLP083 T00441011
KCAK 
32nm NE 
260051Z 26021G32KT 10SM BKN031 BKN041 06/M01 A2973 RMK AO2 PK WND 25045/0017 SLP072 T00611006
KZZV 
35nm S 
260053Z AUTO 28012G24KT 10SM CLR 09/01 A2981 RMK AO2 PK WND 27032/0012 SLP096 T00890011
KAKR 
37nm NE 
260054Z AUTO 26026G41KT 10SM OVC040 07/M03 A2973 RMK AO2 PK WND 26041/0051 SLP069 T00721028
KCDI 
38nm SE 
252359Z AUTO 23008G23KT 10SM SCT048 BKN055 11/03 A2975 RMK AO2
KVTA 
39nm SW 
252054Z AUTO 24024G37KT 10SM FEW050 BKN060 14/04 A2961 RMK AO2 PK WND 25051/1957 SLP026 T01440039 $
TAF
KMFD 
31nm NW 
251735Z 2518/2618 23030G43KT P6SM -SHRA SCT005 BKN020 TEMPO 2518/2520 3SM RA OVC015 FM252300 26025G36KT P6SM BKN020 FM260500 25010KT P6SM SCT020 BKN050
KCAK 
32nm NE 
251735Z 2518/2618 23024G40KT P6SM -SHRA BKN025 TEMPO 2518/2520 VRB30G50KT 2SM TSRA SCT005 OVC010CB FM260300 26020G30KT P6SM BKN020 FM260830 25010KT P6SM BKN050
KZZV 
35nm S 
252204Z 2522/2618 27020G35KT P6SM BKN050 FM260000 24015G35KT P6SM BKN025 FM260600 24008KT P6SM SKC
NOTAMs
Click for the latest NOTAMs
NOTAMs are issued by the DoD/FAA and will open in a separate window not controlled by AirNav.

 

 
 

FBO, Fuel Providers, and Aircraft Ground Support

  
 Business Name 
 
 Contact 
 
 Services / Description 
 
Fuel Prices
 
Comments
  
Professionals Aviation Company Inc. 330-674-0674
no information available

If you are affiliated with Professionals Aviation Company Inc. and would like to show here your services, contact info, web link, logo, and more, click here
100LL Jet A
FS $7.20 $6.75 
 Updated 16-Mar-2023
 
   5 read write
FS=Full service
Update Fuel Prices
 

Would you like to see your business listed on this page?

 If your business provides an interesting product or service to pilots, flight crews, aircraft, or users of the Holmes County Airport, you should consider listing it here.  To start the listing process, click on the button below
 
Add a business
 

Other Pages about Holmes County Airport

Update a link
 
Copyright © AirNav, LLC. All rights reserved. Privacy Policy  Contact